createdAt,value
2018-08-14T00:00:40.530Z,101020.29
2018-08-14T00:03:15.525Z,101016.41
2018-08-14T00:05:45.045Z,101021.58
2018-08-14T00:08:15.248Z,101015.28
2018-08-14T00:10:46.306Z,101015.11
2018-08-14T00:13:16.458Z,101017.97
2018-08-14T00:15:47.544Z,101014.48
2018-08-14T00:18:17.929Z,101011.28
2018-08-14T00:20:47.574Z,101011.10
2018-08-14T00:23:16.970Z,101006.61
2018-08-14T00:25:46.287Z,101006.20
2018-08-14T00:28:15.336Z,101015.58
2018-08-14T00:30:44.080Z,101018.19
2018-08-14T00:33:15.754Z,101015.72
2018-08-14T00:35:47.341Z,101016.22
2018-08-14T00:38:18.100Z,101020.17
2018-08-14T00:40:49.348Z,101020.61
2018-08-14T00:43:21.703Z,101014.24
2018-08-14T00:45:53.579Z,101013.34
2018-08-14T00:48:23.126Z,101015.56
2018-08-14T00:50:54.277Z,101022.63
2018-08-14T00:53:27.694Z,101022.86
2018-08-14T00:56:00.578Z,101014.56
2018-08-14T00:58:32.291Z,101012.52
2018-08-14T01:01:06.637Z,101029.05
2018-08-14T01:03:35.609Z,101023.37
2018-08-14T01:06:05.349Z,101023.80
2018-08-14T01:08:35.399Z,101033.84
2018-08-14T01:11:04.702Z,101026.59
2018-08-14T01:13:35.346Z,101020.72
2018-08-14T01:16:04.771Z,101023.96
2018-08-14T01:18:33.578Z,101026.89
2018-08-14T01:21:02.334Z,101027.65
2018-08-14T01:23:35.557Z,101019.48
2018-08-14T01:26:07.002Z,101028.75
2018-08-14T01:28:39.367Z,101034.72
2018-08-14T01:31:08.239Z,101031.63
2018-08-14T01:33:36.887Z,101036.48
2018-08-14T01:36:10.987Z,101038.73
2018-08-14T01:38:39.723Z,101043.61
2018-08-14T01:41:08.559Z,101051.70
2018-08-14T01:43:37.132Z,101045.96
2018-08-14T01:46:05.628Z,101042.61
2018-08-14T01:48:34.303Z,101045.30
2018-08-14T01:51:02.758Z,101052.83
2018-08-14T01:53:31.588Z,101051.77
2018-08-14T01:56:00.880Z,101053.56
2018-08-14T01:58:29.423Z,101047.98
2018-08-14T02:00:57.959Z,101058.44
2018-08-14T02:03:26.535Z,101057.80
2018-08-14T02:05:55.153Z,101062.52
2018-08-14T02:08:23.742Z,101064.93
2018-08-14T02:10:52.385Z,101058.92
2018-08-14T02:13:20.912Z,101060.95
2018-08-14T02:15:49.561Z,101067.16
2018-08-14T02:18:18.399Z,101067.50
2018-08-14T02:20:47.639Z,101061.92
2018-08-14T02:23:16.327Z,101070.61
2018-08-14T02:25:44.867Z,101065.62
2018-08-14T02:28:14.427Z,101072.72
2018-08-14T02:30:42.948Z,101077.34
2018-08-14T02:33:11.576Z,101085.22
2018-08-14T02:35:40.170Z,101083.30
2018-08-14T02:38:08.927Z,101078.25
2018-08-14T02:40:37.524Z,101085.02
2018-08-14T02:43:06.338Z,101095.04
2018-08-14T02:45:35.487Z,101090.33
2018-08-14T02:48:05.287Z,101092.69
2018-08-14T02:50:33.845Z,101088.39
2018-08-14T02:53:02.656Z,101090.50
2018-08-14T02:55:31.363Z,101093.50
2018-08-14T02:58:00.075Z,101089.77
2018-08-14T03:00:29.195Z,101092.39
2018-08-14T03:02:58.115Z,101083.52
2018-08-14T03:05:26.660Z,101091.25
2018-08-14T03:07:55.542Z,101097.50
2018-08-14T03:10:24.397Z,101100.72
2018-08-14T03:12:53.293Z,101103.11
2018-08-14T03:15:22.677Z,101101.28
2018-08-14T03:17:53.415Z,101106.26
2018-08-14T03:20:22.313Z,101104.56
2018-08-14T03:22:51.257Z,101108.51
2018-08-14T03:25:20.898Z,101108.24
2018-08-14T03:27:50.119Z,101105.45
2018-08-14T03:30:18.912Z,101110.25
2018-08-14T03:32:47.805Z,101112.72
2018-08-14T03:35:16.613Z,101111.07
2018-08-14T03:37:45.351Z,101113.66
2018-08-14T03:40:16.612Z,101115.16
2018-08-14T03:42:46.981Z,101121.59
2018-08-14T03:45:16.148Z,101121.98
2018-08-14T03:47:46.207Z,101123.28
2018-08-14T03:50:15.093Z,101128.03
2018-08-14T03:52:44.159Z,101128.27
2018-08-14T03:55:18.030Z,101133.38
2018-08-14T03:57:47.275Z,101139.75
2018-08-14T04:00:18.443Z,101131.48
2018-08-14T04:02:47.511Z,101137.23
2018-08-14T04:05:16.155Z,101141.55
2018-08-14T04:07:45.750Z,101138.42
2018-08-14T04:10:14.871Z,101143.67
2018-08-14T04:12:43.540Z,101154.83
2018-08-14T04:15:14.310Z,101150.31
2018-08-14T04:17:43.169Z,101159.89
2018-08-14T04:20:13.724Z,101167.75
2018-08-14T04:22:42.578Z,101164.70
2018-08-14T04:25:11.828Z,101163.86
2018-08-14T04:27:40.692Z,101167.80
2018-08-14T04:30:12.299Z,101172.30
2018-08-14T04:32:41.920Z,101178.30
2018-08-14T04:35:11.557Z,101184.68
2018-08-14T04:37:40.132Z,101181.88
2018-08-14T04:40:10.505Z,101190.69
2018-08-14T04:42:39.630Z,101181.28
2018-08-14T04:45:08.631Z,101194.08
2018-08-14T04:47:38.833Z,101198.26
2018-08-14T04:50:10.859Z,101203.39
2018-08-14T04:52:39.953Z,101200.46
2018-08-14T04:55:09.892Z,101213.14
2018-08-14T04:57:39.114Z,101214.09
2018-08-14T05:00:11.210Z,101219.00
2018-08-14T05:02:39.747Z,101220.33
2018-08-14T05:05:10.102Z,101229.16
2018-08-14T05:07:38.813Z,101231.13
2018-08-14T05:10:09.184Z,101234.27
2018-08-14T05:12:37.819Z,101238.80
2018-08-14T05:15:06.419Z,101237.56
2018-08-14T05:17:34.934Z,101242.17
2018-08-14T05:20:04.903Z,101245.45
2018-08-14T05:22:33.320Z,101249.28
2018-08-14T05:25:01.998Z,101259.23
2018-08-14T05:27:30.522Z,101263.94
2018-08-14T05:29:59.564Z,101257.62
2018-08-14T05:32:28.028Z,101264.75
2018-08-14T05:34:56.653Z,101266.89
2018-08-14T05:37:25.035Z,101267.14
2018-08-14T05:39:54.226Z,101268.02
2018-08-14T05:42:22.751Z,101274.78
2018-08-14T05:44:51.412Z,101265.45
2018-08-14T05:47:19.951Z,101281.45
2018-08-14T05:52:28.265Z,101284.36
2018-08-14T05:54:57.701Z,101291.75
2018-08-14T05:57:26.125Z,101295.33
2018-08-14T05:59:54.654Z,101303.41
2018-08-14T06:02:23.272Z,101300.63
2018-08-14T06:04:51.740Z,101301.45
2018-08-14T06:07:20.266Z,101311.76
2018-08-14T06:09:49.703Z,101314.70
2018-08-14T06:12:18.344Z,101315.03
2018-08-14T06:14:46.839Z,101319.95
2018-08-14T06:17:15.047Z,101319.05
2018-08-14T06:19:43.723Z,101322.32
2018-08-14T06:22:12.093Z,101326.98
2018-08-14T06:24:40.321Z,101328.13
2018-08-14T06:27:09.407Z,101331.05
2018-08-14T06:29:37.994Z,101337.23
2018-08-14T06:32:06.476Z,101342.45
2018-08-14T06:34:35.173Z,101343.13
2018-08-14T06:37:04.121Z,101346.67
2018-08-14T06:39:32.807Z,101348.22
2018-08-14T06:42:01.331Z,101350.80
2018-08-14T06:44:29.953Z,101347.95
2018-08-14T06:46:58.424Z,101350.59
2018-08-14T06:49:27.165Z,101354.15
2018-08-14T06:51:55.636Z,101359.17
2018-08-14T06:54:23.820Z,101357.06
2018-08-14T06:56:52.348Z,101358.52
2018-08-14T06:59:20.935Z,101358.68
2018-08-14T07:01:49.621Z,101364.24
2018-08-14T07:04:18.157Z,101367.30
2018-08-14T07:06:47.120Z,101371.91
2018-08-14T07:09:15.911Z,101366.34
2018-08-14T07:11:44.760Z,101383.11
2018-08-14T07:14:13.968Z,101383.42
2018-08-14T07:16:42.789Z,101390.02
2018-08-14T07:19:11.272Z,101397.30
2018-08-14T07:21:39.778Z,101400.88
2018-08-14T07:24:08.419Z,101412.16
2018-08-14T07:26:36.917Z,101413.34
2018-08-14T07:29:05.602Z,101414.61
2018-08-14T07:31:34.318Z,101423.64
2018-08-14T07:34:03.777Z,101426.45
2018-08-14T07:36:32.598Z,101425.66
2018-08-14T07:39:01.023Z,101423.55
2018-08-14T07:41:29.466Z,101424.84
2018-08-14T07:43:59.004Z,101432.27
2018-08-14T07:46:28.015Z,101430.75
2018-08-14T07:48:57.166Z,101432.03
2018-08-14T07:51:26.059Z,101435.05
2018-08-14T07:53:54.432Z,101435.48
2018-08-14T07:56:22.916Z,101439.88
2018-08-14T07:58:51.020Z,101444.30
2018-08-14T08:01:19.522Z,101441.70
2018-08-14T08:03:48.202Z,101443.75
2018-08-14T08:06:16.689Z,101445.12
2018-08-14T08:08:45.259Z,101447.06
2018-08-14T08:11:13.779Z,101445.05
2018-08-14T08:13:42.252Z,101446.16
2018-08-14T08:16:10.698Z,101450.75
2018-08-14T08:18:39.160Z,101451.25
2018-08-14T08:21:08.072Z,101447.38
2018-08-14T08:23:37.408Z,101450.70
2018-08-14T08:26:06.932Z,101446.38
2018-08-14T08:28:35.193Z,101457.89
2018-08-14T08:31:03.894Z,101459.17
2018-08-14T08:33:32.496Z,101459.80
2018-08-14T08:36:01.363Z,101453.30
2018-08-14T08:38:30.051Z,101464.39
2018-08-14T08:40:58.630Z,101468.02
2018-08-14T08:43:27.226Z,101464.16
2018-08-14T08:45:55.606Z,101470.20
2018-08-14T08:48:24.096Z,101465.91
2018-08-14T08:50:52.587Z,101475.00
2018-08-14T08:53:21.973Z,101477.43
2018-08-14T08:55:52.236Z,101481.38
2018-08-14T08:58:20.723Z,101486.10
2018-08-14T09:00:48.790Z,101479.97
2018-08-14T09:03:17.331Z,101484.88
2018-08-14T09:05:45.939Z,101487.51
2018-08-14T09:08:16.497Z,101489.49
2018-08-14T09:10:45.087Z,101493.09
2018-08-14T09:13:15.832Z,101494.82
2018-08-14T09:15:44.402Z,101491.84
2018-08-14T09:18:13.833Z,101496.81
2018-08-14T09:20:42.448Z,101498.98
2018-08-14T09:23:10.911Z,101499.34
2018-08-14T09:25:39.480Z,101501.86
2018-08-14T09:28:08.061Z,101500.56
2018-08-14T09:30:36.593Z,101507.00
2018-08-14T09:33:05.155Z,101507.45
2018-08-14T09:35:33.954Z,101502.88
2018-08-14T09:38:02.515Z,101504.83
2018-08-14T09:40:31.066Z,101513.67
2018-08-14T09:42:59.784Z,101513.70
2018-08-14T09:45:29.004Z,101524.09
2018-08-14T09:47:57.583Z,101527.59
2018-08-14T09:50:26.282Z,101524.00
2018-08-14T09:52:55.419Z,101524.92
2018-08-14T09:55:24.187Z,101524.15
2018-08-14T09:57:53.117Z,101515.87
2018-08-14T10:00:32.914Z,101535.67
2018-08-14T10:03:11.713Z,101536.66
2018-08-14T10:05:46.134Z,101534.02
2018-08-14T10:08:16.090Z,101536.52
2018-08-14T10:10:45.481Z,101535.44
2018-08-14T10:13:16.207Z,101532.10
2018-08-14T10:15:44.981Z,101537.73
2018-08-14T10:18:19.271Z,101537.30
2018-08-14T10:20:47.837Z,101538.48
2018-08-14T10:23:16.625Z,101547.89
2018-08-14T10:25:46.075Z,101549.66
2018-08-14T10:28:18.788Z,101545.21
2018-08-14T10:30:47.319Z,101545.85
2018-08-14T10:33:15.847Z,101536.98
2018-08-14T10:35:44.949Z,101536.11
2018-08-14T10:38:14.109Z,101542.27
2018-08-14T10:40:42.356Z,101542.36
2018-08-14T10:43:10.924Z,101546.03
2018-08-14T10:45:39.843Z,101542.50
2018-08-14T10:48:08.440Z,101542.52
2018-08-14T10:50:37.071Z,101541.73
2018-08-14T10:53:05.697Z,101542.20
2018-08-14T10:55:34.891Z,101551.36
2018-08-14T10:58:03.660Z,101542.30
2018-08-14T11:00:32.757Z,101551.23
2018-08-14T11:03:01.567Z,101542.59
2018-08-14T11:05:30.252Z,101541.72
2018-08-14T11:07:59.433Z,101538.93
2018-08-14T11:10:30.060Z,101537.53
2018-08-14T11:12:58.772Z,101544.33
2018-08-14T11:15:27.482Z,101551.20
2018-08-14T11:17:56.274Z,101545.39
2018-08-14T11:20:26.137Z,101549.83
2018-08-14T11:22:54.926Z,101553.22
2018-08-14T11:25:23.528Z,101545.34
2018-08-14T11:27:52.188Z,101547.86
2018-08-14T11:30:22.607Z,101551.41
2018-08-14T11:32:51.663Z,101548.52
2018-08-14T11:35:21.860Z,101553.66
2018-08-14T11:37:50.534Z,101552.11
2018-08-14T11:40:19.115Z,101561.63
2018-08-14T11:42:47.990Z,101564.48
2018-08-14T11:45:20.609Z,101565.95
2018-08-14T11:47:49.818Z,101563.78
2018-08-14T11:50:19.399Z,101563.95
2018-08-14T11:52:50.372Z,101566.77
2018-08-14T11:55:19.765Z,101572.93
2018-08-14T11:57:49.207Z,101577.64
2018-08-14T12:00:20.324Z,101580.86
2018-08-14T12:02:50.437Z,101588.12
2018-08-14T12:05:20.124Z,101583.50
2018-08-14T12:07:48.614Z,101555.66
2018-08-14T12:10:17.656Z,101590.02
2018-08-14T12:12:46.400Z,101601.76
2018-08-14T12:15:16.022Z,101604.98
2018-08-14T12:17:45.616Z,101598.78
2018-08-14T12:20:18.959Z,101607.23
2018-08-14T12:22:49.198Z,101616.50
2018-08-14T12:25:21.912Z,101631.35
2018-08-14T12:27:50.522Z,101630.97
2018-08-14T12:30:23.357Z,101642.34
2018-08-14T12:32:52.184Z,101647.91
2018-08-14T12:35:20.901Z,101653.73
2018-08-14T12:37:49.346Z,101648.08
2018-08-14T12:40:17.896Z,101651.13
2018-08-14T12:42:46.512Z,101650.72
2018-08-14T12:45:18.648Z,101648.45
2018-08-14T12:47:47.461Z,101648.25
2018-08-14T12:50:17.305Z,101646.39
2018-08-14T12:52:45.827Z,101640.77
2018-08-14T12:55:15.111Z,101638.72
2018-08-14T12:57:44.540Z,101640.78
2018-08-14T13:00:21.764Z,101636.82
2018-08-14T13:02:51.398Z,101640.03
2018-08-14T13:05:20.552Z,101639.53
2018-08-14T13:07:49.032Z,101643.02
2018-08-14T13:10:17.623Z,101649.94
2018-08-14T13:12:46.172Z,101651.92
2018-08-14T13:15:15.103Z,101662.37
2018-08-14T13:17:57.751Z,101664.61
2018-08-14T13:20:27.221Z,101671.91
2018-08-14T13:22:55.782Z,101672.89
2018-08-14T13:25:24.564Z,101679.64
2018-08-14T13:27:53.073Z,101677.98
2018-08-14T13:30:21.761Z,101682.05
2018-08-14T13:32:51.636Z,101689.80
2018-08-14T13:35:20.331Z,101692.20
2018-08-14T13:37:48.908Z,101690.14
2018-08-14T13:40:17.595Z,101685.95
2018-08-14T13:42:46.314Z,101691.93
2018-08-14T13:45:14.834Z,101689.66
2018-08-14T13:47:43.418Z,101683.94
2018-08-14T13:50:12.908Z,101695.81
2018-08-14T13:52:42.040Z,101693.78
2018-08-14T13:55:18.554Z,101691.22
2018-08-14T13:57:48.155Z,101695.69
2018-08-14T14:00:20.240Z,101700.64
2018-08-14T14:02:48.920Z,101701.56
2018-08-14T14:05:17.705Z,101701.30
2018-08-14T14:07:46.169Z,101701.77
2018-08-14T14:10:16.323Z,101705.43
2018-08-14T14:12:44.988Z,101705.54
2018-08-14T14:15:20.017Z,101701.54
2018-08-14T14:17:49.768Z,101700.59
2018-08-14T14:20:29.476Z,101708.50
2018-08-14T14:22:58.083Z,101706.16
2018-08-14T14:25:26.726Z,101717.91
2018-08-14T14:27:55.518Z,101710.31
2018-08-14T14:30:24.070Z,101716.75
2018-08-14T14:32:52.543Z,101714.19
2018-08-14T14:35:21.092Z,101718.13
2018-08-14T14:40:26.916Z,101727.55
2018-08-14T14:42:58.568Z,101724.58
2018-08-14T14:45:27.523Z,101722.98
2018-08-14T14:47:56.088Z,101718.14
2018-08-14T14:50:24.539Z,101732.09
2018-08-14T14:52:53.158Z,101730.61
2018-08-14T14:55:22.788Z,101737.75
2018-08-14T14:57:52.109Z,101731.22
2018-08-14T15:00:25.806Z,101729.74
2018-08-14T15:02:56.242Z,101723.26
2018-08-14T15:05:24.922Z,101719.08
2018-08-14T15:07:53.737Z,101715.91
2018-08-14T15:10:23.543Z,101720.23
2018-08-14T15:12:52.184Z,101709.83
2018-08-14T15:15:20.938Z,101714.18
2018-08-14T15:17:50.937Z,101706.00
2018-08-14T15:20:21.532Z,101709.21
2018-08-14T15:22:51.405Z,101703.26
2018-08-14T15:25:21.352Z,101711.05
2018-08-14T15:29:02.282Z,101707.78
2018-08-14T15:31:31.253Z,101707.69
2018-08-14T15:34:00.674Z,101710.62
2018-08-14T15:36:30.677Z,101720.37
2018-08-14T15:39:00.572Z,101715.36
2018-08-14T15:41:30.178Z,101723.08
2018-08-14T15:43:58.829Z,101717.37
2018-08-14T15:46:27.775Z,101721.58
2018-08-14T15:48:56.529Z,101707.81
2018-08-14T15:51:25.194Z,101717.77
2018-08-14T15:53:53.720Z,101733.38
2018-08-14T15:56:22.690Z,101731.06
2018-08-14T15:58:51.437Z,101727.84
2018-08-14T16:01:20.054Z,101728.89
2018-08-14T16:03:48.891Z,101728.34
2018-08-14T16:06:17.634Z,101731.66
2018-08-14T16:08:46.559Z,101727.22
2018-08-14T16:11:15.288Z,101730.45
2018-08-14T16:13:43.790Z,101745.01
2018-08-14T16:16:12.376Z,101744.14
2018-08-14T16:18:41.124Z,101736.92
2018-08-14T16:21:09.660Z,101744.58
2018-08-14T16:23:38.427Z,101737.64
2018-08-14T16:26:07.057Z,101728.89
2018-08-14T16:28:35.581Z,101739.66
2018-08-14T16:31:03.917Z,101738.36
2018-08-14T16:33:32.788Z,101738.94
2018-08-14T16:36:01.333Z,101746.85
2018-08-14T16:38:30.280Z,101738.83
2018-08-14T16:40:59.225Z,101747.94
2018-08-14T16:43:27.788Z,101742.05
2018-08-14T16:45:56.482Z,101740.38
2018-08-14T16:48:25.204Z,101742.92
2018-08-14T16:50:53.802Z,101749.91
2018-08-14T16:53:22.595Z,101743.67
2018-08-14T16:55:51.116Z,101748.87
2018-08-14T16:58:20.571Z,101756.91
2018-08-14T17:00:48.737Z,101758.70
2018-08-14T17:03:17.228Z,101755.05
2018-08-14T17:05:46.067Z,101760.15
2018-08-14T17:08:14.605Z,101757.28
2018-08-14T17:10:43.050Z,101752.53
2018-08-14T17:13:11.714Z,101758.59
2018-08-14T17:15:40.425Z,101757.33
2018-08-14T17:18:10.160Z,101750.63
2018-08-14T17:20:37.289Z,101754.95
2018-08-14T17:23:06.698Z,101755.06
2018-08-14T17:25:35.534Z,101756.22
2018-08-14T17:28:06.100Z,101756.02
2018-08-14T17:30:35.303Z,101755.69
2018-08-14T17:33:05.175Z,101755.55
2018-08-14T17:35:34.760Z,101754.06
2018-08-14T17:38:06.701Z,101752.45
2018-08-14T17:40:35.839Z,101760.59
2018-08-14T17:43:05.729Z,101767.55
2018-08-14T17:45:35.708Z,101772.07
2018-08-14T17:48:05.172Z,101777.51
2018-08-14T17:50:34.512Z,101781.48
2018-08-14T17:53:04.167Z,101776.52
2018-08-14T17:55:34.015Z,101783.55
2018-08-14T17:58:03.484Z,101785.22
2018-08-14T18:00:32.938Z,101789.81
2018-08-14T18:03:06.109Z,101800.44
2018-08-14T18:05:35.424Z,101799.87
2018-08-14T18:08:06.185Z,101799.02
2018-08-14T18:10:35.098Z,101800.55
2018-08-14T18:13:04.249Z,101799.25
2018-08-14T18:15:33.046Z,101798.40
2018-08-14T18:18:01.884Z,101790.73
2018-08-14T18:20:31.096Z,101789.92
2018-08-14T18:23:00.169Z,101793.20
2018-08-14T18:25:29.177Z,101799.56
2018-08-14T18:27:59.448Z,101791.17
2018-08-14T18:30:28.441Z,101789.95
2018-08-14T18:32:59.059Z,101791.19
2018-08-14T18:35:27.717Z,101796.25
2018-08-14T18:37:56.743Z,101789.10
2018-08-14T18:40:26.260Z,101797.73
2018-08-14T18:42:55.854Z,101793.53
2018-08-14T18:45:26.800Z,101799.09
2018-08-14T18:47:55.588Z,101803.97
2018-08-14T18:50:24.380Z,101811.12
2018-08-14T18:52:52.947Z,101808.22
2018-08-14T18:55:22.443Z,101804.73
2018-08-14T18:57:51.650Z,101811.14
2018-08-14T19:00:26.012Z,101816.13
2018-08-14T19:05:29.483Z,101817.20
2018-08-14T19:07:58.467Z,101817.45
2018-08-14T19:10:27.985Z,101817.69
2018-08-14T19:12:56.532Z,101824.48
2018-08-14T19:15:38.139Z,101828.13
2018-08-14T19:18:10.768Z,101836.20
2018-08-14T19:20:39.791Z,101829.30
2018-08-14T19:23:09.253Z,101833.55
2018-08-14T19:25:38.979Z,101833.17
2018-08-14T19:28:07.544Z,101845.16
2018-08-14T19:30:36.202Z,101840.34
2018-08-14T19:35:40.305Z,101845.02
2018-08-14T19:38:09.040Z,101847.56
2018-08-14T19:40:37.896Z,101845.27
2018-08-14T19:43:06.762Z,101857.25
2018-08-14T19:45:34.887Z,101849.27
2018-08-14T19:48:03.681Z,101853.01
2018-08-14T19:50:32.562Z,101855.92
2018-08-14T19:53:01.355Z,101852.52
2018-08-14T19:55:31.408Z,101849.02
2018-08-14T19:58:00.664Z,101844.28
2018-08-14T20:00:29.317Z,101846.23
2018-08-14T20:05:26.188Z,101832.84
2018-08-14T20:07:55.141Z,101827.92
2018-08-14T20:10:24.879Z,101834.25
2018-08-14T20:12:54.959Z,101837.28
2018-08-14T20:15:31.816Z,101834.75
2018-08-14T20:18:00.328Z,101839.20
2018-08-14T20:20:30.478Z,101841.16
2018-08-14T20:22:59.139Z,101845.73
2018-08-14T20:25:27.815Z,101851.55
2018-08-14T20:27:57.154Z,101848.52
2018-08-14T20:30:26.615Z,101845.48
2018-08-14T20:32:55.170Z,101853.13
2018-08-14T20:35:24.832Z,101850.59
2018-08-14T20:37:53.570Z,101852.17
2018-08-14T20:40:23.199Z,101852.27
2018-08-14T20:42:52.106Z,101854.09
2018-08-14T20:45:22.245Z,101853.76
2018-08-14T20:47:51.581Z,101851.93
2018-08-14T20:50:20.595Z,101846.61
2018-08-14T20:52:50.108Z,101846.73
2018-08-14T20:55:20.827Z,101850.84
2018-08-14T20:57:50.894Z,101847.56
2018-08-14T21:00:25.196Z,101846.85
2018-08-14T21:02:56.376Z,101846.84
2018-08-14T21:05:26.423Z,101848.44
2018-08-14T21:07:55.382Z,101843.33
2018-08-14T21:10:24.402Z,101848.89
2018-08-14T21:12:53.908Z,101855.55
2018-08-14T21:15:29.303Z,101860.75
2018-08-14T21:17:58.249Z,101860.94
2018-08-14T21:20:28.109Z,101867.84
2018-08-14T21:22:57.793Z,101871.76
2018-08-14T21:25:27.539Z,101873.80
2018-08-14T21:27:57.487Z,101865.73
2018-08-14T21:30:26.352Z,101865.23
2018-08-14T21:32:55.076Z,101864.61
2018-08-14T21:35:23.952Z,101861.24
2018-08-14T21:37:53.169Z,101872.27
2018-08-14T21:40:23.058Z,101869.73
2018-08-14T21:42:52.744Z,101872.84
2018-08-14T21:45:21.760Z,101879.38
2018-08-14T21:47:50.852Z,101871.89
2018-08-14T21:50:21.885Z,101872.02
2018-08-14T21:52:51.104Z,101872.14
2018-08-14T21:55:21.649Z,101874.31
2018-08-14T21:57:50.515Z,101874.31
2018-08-14T22:00:23.731Z,101871.77
2018-08-14T22:02:55.932Z,101868.09
2018-08-14T22:05:24.781Z,101876.58
2018-08-14T22:07:54.624Z,101878.54
2018-08-14T22:10:23.963Z,101872.27
2018-08-14T22:12:52.935Z,101880.00
2018-08-14T22:15:21.881Z,101881.80
2018-08-14T22:17:50.540Z,101876.22
2018-08-14T22:20:19.514Z,101879.25
2018-08-14T22:22:48.082Z,101883.36
2018-08-14T22:25:17.230Z,101884.80
2018-08-14T22:27:46.464Z,101881.39
2018-08-14T22:30:15.863Z,101884.67
2018-08-14T22:32:47.930Z,101893.97
2018-08-14T22:35:16.636Z,101892.41
2018-08-14T22:37:45.504Z,101888.92
2018-08-14T22:40:15.557Z,101887.41
2018-08-14T22:42:45.080Z,101891.63
2018-08-14T22:45:16.629Z,101896.67
2018-08-14T22:47:45.135Z,101895.09
2018-08-14T22:50:16.745Z,101895.86
2018-08-14T22:52:46.289Z,101899.39
2018-08-14T22:55:14.978Z,101893.73
2018-08-14T22:57:44.054Z,101894.78
2018-08-14T23:00:16.649Z,101894.98
2018-08-14T23:02:46.497Z,101894.47
2018-08-14T23:05:16.616Z,101892.64
2018-08-14T23:07:46.402Z,101893.52
2018-08-14T23:10:16.045Z,101887.05
2018-08-14T23:12:45.175Z,101894.64
2018-08-14T23:15:14.465Z,101893.84
2018-08-14T23:17:44.634Z,101886.65
2018-08-14T23:20:14.201Z,101893.64
2018-08-14T23:22:42.844Z,101891.73
2018-08-14T23:25:12.836Z,101892.66
2018-08-14T23:27:41.743Z,101895.55
2018-08-14T23:30:14.459Z,101894.94
2018-08-14T23:32:43.816Z,101885.64
2018-08-14T23:35:12.622Z,101885.11
2018-08-14T23:37:42.359Z,101892.55
2018-08-14T23:40:13.024Z,101888.94
2018-08-14T23:42:41.828Z,101887.11
2018-08-14T23:45:11.634Z,101887.06
2018-08-14T23:47:42.082Z,101889.23
2018-08-14T23:50:12.036Z,101893.73
2018-08-14T23:52:41.254Z,101888.77
2018-08-14T23:55:11.692Z,101890.70
2018-08-14T23:57:40.723Z,101895.13
